createdAt,value
2024-05-09T00:00:56.618Z,8.52
2024-05-09T00:05:58.903Z,8.95
2024-05-09T00:11:01.805Z,8.02
2024-05-09T00:16:05.315Z,10.20
2024-05-09T00:21:09.394Z,8.75
2024-05-09T00:26:17.614Z,9.00
2024-05-09T00:31:19.702Z,8.85
2024-05-09T00:36:21.764Z,9.02
2024-05-09T00:41:23.827Z,8.90
2024-05-09T00:46:26.374Z,8.57
2024-05-09T00:51:28.517Z,9.38
2024-05-09T00:56:30.583Z,9.25
2024-05-09T01:01:32.972Z,8.40
2024-05-09T01:06:35.060Z,8.73
2024-05-09T01:11:39.232Z,8.20
2024-05-09T01:16:41.942Z,7.18
2024-05-09T01:21:44.291Z,9.40
2024-05-09T01:26:46.307Z,8.50
2024-05-09T01:31:48.659Z,7.85
2024-05-09T01:36:50.728Z,7.63
2024-05-09T01:41:52.788Z,7.45
2024-05-09T01:46:54.793Z,7.43
2024-05-09T01:51:56.788Z,8.60
2024-05-09T01:56:58.775Z,7.70
2024-05-09T02:02:01.045Z,6.63
2024-05-09T02:07:03.367Z,6.05
2024-05-09T02:12:06.058Z,6.93
2024-05-09T02:17:08.395Z,6.68
2024-05-09T02:22:10.444Z,7.30
2024-05-09T02:27:12.509Z,6.30
2024-05-09T02:32:14.794Z,7.43
2024-05-09T02:37:17.057Z,6.20
2024-05-09T02:42:19.135Z,6.75
2024-05-09T02:47:21.419Z,6.00
2024-05-09T02:52:23.586Z,7.43
2024-05-09T02:57:25.581Z,7.00
2024-05-09T03:02:30.842Z,6.45
2024-05-09T03:07:33.099Z,6.60
2024-05-09T03:12:39.053Z,6.85
2024-05-09T03:17:44.636Z,5.63
2024-05-09T03:22:47.022Z,6.05
2024-05-09T03:27:53.459Z,6.30
2024-05-09T03:32:58.160Z,6.00
2024-05-09T03:38:00.728Z,4.70
2024-05-09T03:43:02.993Z,5.72
2024-05-09T03:48:06.360Z,4.85
2024-05-09T03:53:23.032Z,5.50
2024-05-09T03:58:27.755Z,5.65
2024-05-09T04:03:30.382Z,5.43
2024-05-09T04:08:33.028Z,6.35
2024-05-09T04:13:40.535Z,5.70
2024-05-09T04:18:42.832Z,5.60
2024-05-09T04:23:45.148Z,5.65
2024-05-09T04:28:47.501Z,7.10
2024-05-09T04:33:52.832Z,6.28
2024-05-09T04:38:55.209Z,5.47
2024-05-09T04:43:57.463Z,6.57
2024-05-09T04:48:59.722Z,6.22
2024-05-09T04:54:02.147Z,6.05
2024-05-09T04:59:09.874Z,5.88
2024-05-09T05:04:12.111Z,6.50
2024-05-09T05:09:14.300Z,7.68
2024-05-09T05:14:17.564Z,6.90
2024-05-09T05:19:19.732Z,7.47
2024-05-09T05:24:21.912Z,10.02
2024-05-09T05:29:23.937Z,8.23
2024-05-09T05:34:25.989Z,9.40
2024-05-09T05:39:30.571Z,10.75
2024-05-09T05:44:32.744Z,11.23
2024-05-09T05:49:34.973Z,12.27
2024-05-09T05:54:37.085Z,15.05
2024-05-09T05:59:42.245Z,15.95
2024-05-09T06:04:44.494Z,15.90
2024-05-09T06:09:48.299Z,16.45
2024-05-09T06:14:51.974Z,16.13
2024-05-09T06:19:54.414Z,17.17
2024-05-09T06:24:56.570Z,18.05
2024-05-09T06:29:58.647Z,20.00
2024-05-09T06:35:00.871Z,21.38
2024-05-09T06:40:17.362Z,21.90
2024-05-09T06:50:24.403Z,21.52
2024-05-09T06:55:30.037Z,23.48
2024-05-09T07:00:38.600Z,20.08
2024-05-09T07:05:43.288Z,16.35
2024-05-09T07:10:48.529Z,14.20
2024-05-09T07:15:50.773Z,14.00
2024-05-09T07:20:54.799Z,13.13
2024-05-09T07:25:57.932Z,13.30
2024-05-09T07:31:00.021Z,11.27
2024-05-09T07:36:02.064Z,11.00
2024-05-09T07:41:04.295Z,10.25
2024-05-09T07:47:04.547Z,9.85
2024-05-09T07:56:33.590Z,11.07
2024-05-09T08:01:35.840Z,9.32
2024-05-09T08:06:38.077Z,9.13
2024-05-09T08:11:40.189Z,9.25
2024-05-09T08:16:42.215Z,9.05
2024-05-09T08:21:44.269Z,8.35
2024-05-09T08:26:46.291Z,7.60
2024-05-09T08:31:48.371Z,7.78
2024-05-09T08:36:50.503Z,6.70
2024-05-09T08:41:53.595Z,6.95
2024-05-09T08:46:57.647Z,7.20
2024-05-09T08:51:59.756Z,6.82
2024-05-09T08:57:04.427Z,6.05
2024-05-09T09:02:10.039Z,6.10
2024-05-09T09:07:12.921Z,6.63
2024-05-09T09:12:17.827Z,4.47
2024-05-09T09:22:22.160Z,4.63
2024-05-09T09:27:24.299Z,6.00
2024-05-09T09:32:29.283Z,6.22
2024-05-09T09:37:32.364Z,6.78
2024-05-09T09:42:37.307Z,6.25
2024-05-09T09:47:41.575Z,6.93
2024-05-09T09:52:46.652Z,6.97
2024-05-09T09:57:52.980Z,6.90
2024-05-09T10:02:55.231Z,6.53
2024-05-09T10:07:58.870Z,7.00
2024-05-09T10:13:06.034Z,7.25
2024-05-09T10:18:08.653Z,6.03
2024-05-09T10:23:32.452Z,6.40
2024-05-09T10:28:42.202Z,7.63
2024-05-09T10:33:50.944Z,6.55
2024-05-09T10:38:55.540Z,8.38
2024-05-09T10:43:57.974Z,6.83
2024-05-09T10:49:03.337Z,7.53
2024-05-09T10:54:07.864Z,8.45
2024-05-09T10:59:12.647Z,8.80
2024-05-09T11:04:24.330Z,6.50
2024-05-09T11:09:56.279Z,7.78
2024-05-09T11:15:07.839Z,8.30
2024-05-09T11:20:22.879Z,10.73
2024-05-09T11:25:33.257Z,8.00
2024-05-09T11:30:35.477Z,7.43
2024-05-09T11:35:37.722Z,8.63
2024-05-09T11:40:40.103Z,7.88
2024-05-09T11:45:42.578Z,6.63
2024-05-09T11:50:47.389Z,6.95
2024-05-09T11:55:50.906Z,6.78
2024-05-09T12:00:53.207Z,8.00
2024-05-09T12:06:21.582Z,8.35
2024-05-09T12:11:24.048Z,7.78
2024-05-09T12:16:26.601Z,8.38
2024-05-09T12:21:32.768Z,7.53
2024-05-09T12:26:35.346Z,8.82
2024-05-09T12:31:40.295Z,6.85
2024-05-09T12:36:43.335Z,8.30
2024-05-09T12:41:50.931Z,6.15
2024-05-09T12:46:53.056Z,7.13
2024-05-09T12:58:54.392Z,7.28
2024-05-09T13:06:36.299Z,6.10
2024-05-09T13:12:05.453Z,6.47
2024-05-09T13:18:54.088Z,6.15
2024-05-09T16:23:21.192Z,7.80
2024-05-09T16:35:18.388Z,7.78
2024-05-09T16:40:34.323Z,8.50
2024-05-09T16:45:46.408Z,7.82
2024-05-09T16:50:52.740Z,7.25
2024-05-09T16:56:02.203Z,8.38
2024-05-09T17:01:14.818Z,7.90
2024-05-09T17:06:29.043Z,6.97
2024-05-09T17:11:36.081Z,7.03
2024-05-09T17:16:38.467Z,6.97
2024-05-09T17:21:45.127Z,8.02
2024-05-09T17:26:54.641Z,9.30
2024-05-09T17:32:00.058Z,9.55
2024-05-09T17:37:06.519Z,9.35
2024-05-09T17:42:14.637Z,9.63
2024-05-09T17:47:35.918Z,8.60
2024-05-09T17:58:25.791Z,12.82
2024-05-09T18:03:30.024Z,8.98
2024-05-09T18:08:35.480Z,8.50
2024-05-09T18:13:41.899Z,9.65
2024-05-09T18:18:44.115Z,9.63
2024-05-09T18:23:58.775Z,8.93
2024-05-09T18:29:03.215Z,9.23
2024-05-09T18:34:06.010Z,9.32
2024-05-09T18:39:08.882Z,8.90
2024-05-09T18:44:20.726Z,9.07
2024-05-09T18:49:25.797Z,7.18
2024-05-09T18:54:33.619Z,7.07
2024-05-09T18:59:38.910Z,6.45
2024-05-09T19:11:40.134Z,6.30
2024-05-09T19:16:45.174Z,6.80
2024-05-09T19:21:50.276Z,8.18
2024-05-09T19:26:52.789Z,7.63
2024-05-09T19:38:18.824Z,7.10
2024-05-09T19:44:03.307Z,7.07
2024-05-09T19:49:35.141Z,6.57
2024-05-09T20:06:58.315Z,10.90
2024-05-09T20:12:37.928Z,10.43
2024-05-09T20:24:14.457Z,9.95
2024-05-09T20:29:28.982Z,8.93
2024-05-09T20:48:48.623Z,10.70
2024-05-09T20:54:17.564Z,9.57
2024-05-09T20:59:52.955Z,10.65
2024-05-09T21:11:17.066Z,9.50
2024-05-09T21:36:21.162Z,9.27
2024-05-09T21:41:25.028Z,9.70
2024-05-09T21:51:49.786Z,10.57
2024-05-09T21:56:53.035Z,9.85
2024-05-09T22:02:01.751Z,10.82
2024-05-09T22:07:10.314Z,9.60
2024-05-09T22:12:13.078Z,9.45
2024-05-09T22:17:15.432Z,8.80
2024-05-09T22:22:17.635Z,9.30
2024-05-09T22:27:26.423Z,9.70
2024-05-09T22:32:29.531Z,9.45
2024-05-09T22:37:31.794Z,9.80
2024-05-09T22:42:34.019Z,10.40
2024-05-09T22:47:36.367Z,9.52
2024-05-09T22:52:40.013Z,9.75
2024-05-09T22:57:52.557Z,9.85
2024-05-09T23:02:54.921Z,10.88
2024-05-09T23:07:58.507Z,11.43
2024-05-09T23:13:03.479Z,12.88
2024-05-09T23:18:06.747Z,11.03
2024-05-09T23:23:12.102Z,11.20
2024-05-09T23:28:16.711Z,10.70
2024-05-09T23:33:23.277Z,12.10
2024-05-09T23:38:25.662Z,10.85
2024-05-09T23:43:30.252Z,11.50
2024-05-09T23:48:33.739Z,12.05
2024-05-09T23:58:52.023Z,10.02
